Time;durP1;ratioP1;P1;durP2;ratioP2;P2;SDS_P1;SDS_P2;PMS_P1;PMS_P2;Temp;Humidity;BMP_temperature;BMP_pressure;BME280_temperature;BME280_humidity;BME280_pressure;Samples;Min_cycle;Max_cycle;Signal;HPM_P1;HPM_P2
2024/01/29 00:00:34;;;;;;;13.82;6.57;;;0.30;99.90;;;;;;4966507;28;20031;-71
2024/01/29 00:03:00;;;;;;;11.15;5.07;;;0.30;99.90;;;;;;4965249;28;20426;-71
2024/01/29 00:05:26;;;;;;;9.85;5.95;;;0.30;99.90;;;;;;4956446;28;20390;-71
2024/01/29 00:07:53;;;;;;;19.15;6.70;;;0.30;99.90;;;;;;4954030;28;20026;-72
2024/01/29 00:10:21;;;;;;;14.52;6.75;;;0.20;99.90;;;;;;4959333;28;20035;-72
2024/01/29 00:12:47;;;;;;;9.57;6.28;;;0.20;99.90;;;;;;4958068;28;20636;-71
2024/01/29 00:15:13;;;;;;;10.43;6.22;;;0.20;99.90;;;;;;4954148;28;20066;-71
2024/01/29 00:17:39;;;;;;;10.13;5.47;;;0.20;99.90;;;;;;4950709;28;20033;-71
2024/01/29 00:20:06;;;;;;;13.75;6.43;;;0.20;99.90;;;;;;4950401;28;20089;-71
2024/01/29 00:22:32;;;;;;;16.95;5.50;;;0.20;99.90;;;;;;4934214;28;20027;-71
2024/01/29 00:24:58;;;;;;;19.73;6.85;;;0.20;99.90;;;;;;4948988;28;20502;-71
2024/01/29 00:27:24;;;;;;;12.73;5.65;;;0.20;99.90;;;;;;4950740;28;20027;-71
2024/01/29 00:29:49;;;;;;;12.35;5.18;;;0.20;99.90;;;;;;4950136;28;20031;-71
2024/01/29 00:32:15;;;;;;;12.68;5.50;;;0.20;99.90;;;;;;5010386;28;20033;-71
2024/01/29 00:34:41;;;;;;;9.55;5.80;;;0.10;99.90;;;;;;4947243;28;20043;-71
2024/01/29 00:37:07;;;;;;;11.43;4.13;;;0.10;99.90;;;;;;4950218;28;20125;-71
2024/01/29 00:39:33;;;;;;;7.88;5.40;;;0.00;99.90;;;;;;4951854;28;20533;-71
2024/01/29 00:41:59;;;;;;;13.38;6.03;;;-0.10;99.90;;;;;;4943379;28;20039;-72
2024/01/29 00:44:24;;;;;;;11.05;5.68;;;-0.20;99.90;;;;;;4947292;28;20357;-72
2024/01/29 00:46:50;;;;;;;8.52;4.50;;;-0.20;99.90;;;;;;4946983;28;20088;-71
2024/01/29 00:49:16;;;;;;;13.88;5.65;;;-0.20;99.90;;;;;;4944869;28;20118;-71
2024/01/29 00:51:42;;;;;;;7.22;4.05;;;-0.20;99.90;;;;;;4950885;28;20046;-72
2024/01/29 00:54:10;;;;;;;7.75;4.90;;;-0.20;99.90;;;;;;4951190;28;20034;-71
2024/01/29 00:56:36;;;;;;;7.13;4.38;;;-0.30;99.90;;;;;;4923847;29;20568;-71
2024/01/29 00:59:02;;;;;;;10.48;5.63;;;-0.20;99.90;;;;;;4958453;28;20039;-71
2024/01/29 01:01:28;;;;;;;16.27;6.43;;;-0.30;99.90;;;;;;4973518;28;20062;-71
2024/01/29 01:03:55;;;;;;;7.15;4.28;;;-0.20;99.90;;;;;;4951124;28;20066;-71
2024/01/29 01:06:21;;;;;;;7.22;4.68;;;-0.20;99.90;;;;;;4931634;28;20563;-71
2024/01/29 01:08:47;;;;;;;6.82;3.90;;;-0.20;99.90;;;;;;4928271;28;20065;-71
2024/01/29 01:11:13;;;;;;;9.23;3.92;;;-0.20;99.90;;;;;;4952586;28;20031;-71
2024/01/29 01:13:38;;;;;;;7.60;5.13;;;-0.20;99.90;;;;;;4946550;28;20395;-71
2024/01/29 01:16:05;;;;;;;15.30;6.15;;;-0.20;99.90;;;;;;4926517;28;20038;-71
2024/01/29 01:18:30;;;;;;;19.88;7.28;;;-0.10;99.90;;;;;;4949723;28;20430;-71
2024/01/29 01:20:56;;;;;;;15.13;7.05;;;0.00;99.90;;;;;;4979531;28;20033;-71
2024/01/29 01:23:22;;;;;;;8.20;4.80;;;0.00;99.90;;;;;;4943145;28;20644;-71
2024/01/29 01:25:47;;;;;;;9.15;4.38;;;0.30;99.90;;;;;;4951405;28;20035;-71
2024/01/29 01:28:13;;;;;;;8.02;4.53;;;0.20;99.90;;;;;;4950863;28;20020;-71
2024/01/29 01:30:39;;;;;;;8.27;5.88;;;0.10;99.90;;;;;;4959065;28;20123;-71
2024/01/29 01:33:05;;;;;;;10.30;4.95;;;0.10;99.90;;;;;;4964154;28;20089;-71
2024/01/29 01:35:31;;;;;;;12.80;4.07;;;0.30;99.90;;;;;;4982681;28;20035;-71
2024/01/29 01:37:59;;;;;;;11.15;5.25;;;0.30;99.90;;;;;;4951045;28;20031;-72
2024/01/29 01:40:25;;;;;;;10.52;4.97;;;0.30;99.90;;;;;;4948678;28;20082;-72
2024/01/29 01:42:51;;;;;;;3.95;3.58;;;0.20;99.90;;;;;;4946770;28;20032;-72
2024/01/29 01:45:16;;;;;;;13.55;4.72;;;0.20;99.90;;;;;;4947065;28;20649;-72
2024/01/29 01:47:45;;;;;;;17.90;5.43;;;0.20;99.90;;;;;;4942894;28;20482;-72
2024/01/29 01:50:11;;;;;;;10.25;5.45;;;0.10;99.90;;;;;;4949183;28;20089;-72
2024/01/29 01:52:38;;;;;;;14.27;5.00;;;0.10;99.90;;;;;;4949764;28;20556;-72
2024/01/29 01:55:04;;;;;;;13.13;5.38;;;0.00;99.90;;;;;;4949153;28;20065;-72
2024/01/29 01:57:30;;;;;;;8.65;4.70;;;0.00;99.90;;;;;;4944549;28;20035;-72
2024/01/29 01:59:58;;;;;;;11.27;4.68;;;0.00;99.90;;;;;;4931873;28;20387;-72
2024/01/29 02:02:24;;;;;;;6.28;4.13;;;0.00;99.90;;;;;;4948484;28;20024;-71
2024/01/29 02:04:50;;;;;;;13.57;5.47;;;0.00;99.90;;;;;;4958161;28;20113;-72
2024/01/29 02:07:17;;;;;;;24.08;5.95;;;0.00;99.90;;;;;;4942952;28;20023;-73
2024/01/29 02:09:44;;;;;;;8.88;5.10;;;0.10;99.90;;;;;;4945802;28;20229;-72
2024/01/29 02:12:10;;;;;;;21.05;6.07;;;0.00;99.90;;;;;;4946014;28;20081;-72
2024/01/29 02:14:35;;;;;;;11.55;6.00;;;-0.10;99.90;;;;;;4930333;28;20035;-72
2024/01/29 02:17:01;;;;;;;8.52;4.78;;;-0.30;99.90;;;;;;4982558;28;20033;-72
2024/01/29 02:19:27;;;;;;;12.50;5.93;;;-0.30;99.90;;;;;;4948827;28;20031;-72
2024/01/29 02:21:54;;;;;;;15.60;7.18;;;-0.30;99.90;;;;;;4948813;28;20531;-73
2024/01/29 02:24:20;;;;;;;10.27;5.30;;;-0.20;99.90;;;;;;4948219;28;20043;-72
2024/01/29 02:26:47;;;;;;;13.80;6.22;;;-0.20;99.90;;;;;;4932756;29;20053;-72
2024/01/29 02:29:14;;;;;;;16.15;7.70;;;-0.20;99.90;;;;;;4948767;28;20090;-72
2024/01/29 02:31:40;;;;;;;14.70;7.10;;;-0.20;99.90;;;;;;4948731;28;20096;-72
2024/01/29 02:34:05;;;;;;;12.98;6.35;;;-0.20;99.90;;;;;;4947998;28;21638;-72
2024/01/29 02:36:31;;;;;;;6.25;4.68;;;-0.20;99.90;;;;;;4950142;28;20088;-71
2024/01/29 02:38:57;;;;;;;8.55;4.15;;;-0.20;99.90;;;;;;4948495;28;20177;-72
2024/01/29 02:41:23;;;;;;;14.43;6.10;;;-0.20;99.90;;;;;;4948709;28;20035;-71
2024/01/29 02:43:48;;;;;;;10.20;6.15;;;-0.10;99.90;;;;;;4947781;28;20028;-72
2024/01/29 02:46:16;;;;;;;16.23;5.55;;;-0.20;99.90;;;;;;4948311;28;20606;-72
2024/01/29 02:48:42;;;;;;;8.07;5.40;;;-0.30;99.90;;;;;;4948407;28;20506;-72
2024/01/29 02:51:07;;;;;;;9.02;5.40;;;-0.40;99.90;;;;;;4948068;28;20027;-72
2024/01/29 02:53:33;;;;;;;12.25;5.82;;;-0.50;99.90;;;;;;4947168;28;20752;-72
2024/01/29 02:55:59;;;;;;;12.25;5.60;;;-0.70;99.90;;;;;;4951553;28;20047;-72
2024/01/29 02:58:25;;;;;;;12.00;7.88;;;-0.60;99.90;;;;;;4951920;28;20082;-72
2024/01/29 03:00:50;;;;;;;8.40;4.93;;;-0.50;99.90;;;;;;4925062;28;20110;-72
2024/01/29 03:03:16;;;;;;;6.57;5.63;;;-0.50;99.90;;;;;;4950472;28;20027;-71
2024/01/29 03:05:42;;;;;;;6.88;5.32;;;-0.50;99.90;;;;;;4936128;28;20520;-72
2024/01/29 03:08:07;;;;;;;15.02;5.28;;;-0.50;99.90;;;;;;4951846;28;20392;-72
2024/01/29 03:10:33;;;;;;;9.73;4.00;;;-0.50;99.90;;;;;;4948711;28;20035;-71
2024/01/29 03:12:59;;;;;;;10.40;4.93;;;-0.50;99.90;;;;;;4948643;28;20027;-72
2024/01/29 03:15:25;;;;;;;6.57;4.32;;;-0.40;99.90;;;;;;4947688;28;20106;-72
2024/01/29 03:17:51;;;;;;;7.72;5.72;;;-0.40;99.90;;;;;;4948697;28;20495;-72
2024/01/29 03:20:17;;;;;;;18.83;6.82;;;-0.20;99.90;;;;;;4968031;28;20037;-72
2024/01/29 03:22:42;;;;;;;10.52;4.47;;;0.00;99.90;;;;;;5008475;28;20566;-72
2024/01/29 03:25:09;;;;;;;8.23;5.35;;;0.10;99.90;;;;;;4950848;28;20035;-72
2024/01/29 03:27:34;;;;;;;9.63;4.68;;;0.10;99.90;;;;;;4952262;28;20341;-72
2024/01/29 03:30:00;;;;;;;7.85;4.40;;;0.10;99.90;;;;;;4957311;28;20130;-72
2024/01/29 03:32:28;;;;;;;13.93;5.20;;;0.20;99.90;;;;;;4950446;28;20042;-72
2024/01/29 03:34:54;;;;;;;4.90;3.00;;;0.20;99.90;;;;;;4949289;28;20506;-72
2024/01/29 03:37:19;;;;;;;5.63;3.05;;;0.20;99.90;;;;;;4948280;28;20126;-72
2024/01/29 03:39:45;;;;;;;6.57;4.20;;;0.30;99.90;;;;;;4947338;28;20031;-72
2024/01/29 03:42:11;;;;;;;7.47;4.50;;;0.40;99.90;;;;;;4951179;28;20028;-71
2024/01/29 03:44:37;;;;;;;7.10;3.17;;;0.50;99.90;;;;;;4952822;28;20554;-72
2024/01/29 03:47:03;;;;;;;8.80;4.93;;;0.50;99.90;;;;;;4950129;28;20391;-72
2024/01/29 03:49:28;;;;;;;7.90;4.65;;;0.40;99.90;;;;;;4952575;28;20035;-72
2024/01/29 03:51:54;;;;;;;10.70;5.05;;;0.50;99.90;;;;;;4952288;28;20379;-72
2024/01/29 03:54:20;;;;;;;15.10;4.63;;;0.50;99.90;;;;;;4951622;28;20035;-72
2024/01/29 03:56:45;;;;;;;6.35;3.72;;;0.50;99.90;;;;;;4951550;28;20039;-72
2024/01/29 03:59:11;;;;;;;7.20;4.38;;;0.50;99.90;;;;;;4951965;28;20034;-72
2024/01/29 04:01:38;;;;;;;10.27;4.80;;;0.50;99.90;;;;;;4952661;28;20031;-73
2024/01/29 04:04:04;;;;;;;7.82;3.78;;;0.50;99.90;;;;;;4951168;28;20027;-72
2024/01/29 04:06:33;;;;;;;5.65;3.50;;;0.50;99.90;;;;;;4952105;28;20075;-72
2024/01/29 04:08:58;;;;;;;11.55;3.05;;;0.50;99.90;;;;;;4950944;28;20399;-72
2024/01/29 04:11:25;;;;;;;8.98;3.83;;;0.50;99.90;;;;;;4951891;28;20110;-72
2024/01/29 04:13:50;;;;;;;4.53;2.95;;;0.50;99.90;;;;;;4950695;28;20046;-72
2024/01/29 04:16:16;;;;;;;7.03;3.92;;;0.60;99.90;;;;;;4946622;28;20031;-71
2024/01/29 04:18:42;;;;;;;5.15;3.28;;;0.60;99.90;;;;;;4951896;28;20456;-72
2024/01/29 04:21:08;;;;;;;6.00;4.00;;;0.60;99.90;;;;;;4951949;28;20081;-72
2024/01/29 04:23:35;;;;;;;5.93;3.35;;;0.60;99.90;;;;;;4950349;28;20078;-72
2024/01/29 04:26:01;;;;;;;5.25;2.78;;;0.60;99.90;;;;;;4950279;28;20118;-72
2024/01/29 04:28:27;;;;;;;5.40;3.53;;;0.60;99.90;;;;;;4951340;28;20023;-72
2024/01/29 04:30:53;;;;;;;4.90;3.30;;;0.70;99.90;;;;;;5019170;28;20098;-72
2024/01/29 04:33:19;;;;;;;8.85;4.43;;;0.70;99.90;;;;;;4949938;28;20427;-72
2024/01/29 04:35:45;;;;;;;6.95;3.90;;;0.60;99.90;;;;;;4950779;29;20092;-72
2024/01/29 04:38:11;;;;;;;9.07;3.28;;;0.60;99.90;;;;;;4951714;28;20046;-72
2024/01/29 04:40:39;;;;;;;7.75;4.47;;;0.60;99.90;;;;;;4951978;28;20054;-72
2024/01/29 04:43:05;;;;;;;8.48;4.00;;;0.60;99.90;;;;;;4949876;28;20023;-72
2024/01/29 04:45:31;;;;;;;12.07;5.03;;;0.60;99.90;;;;;;4951214;28;20031;-72
2024/01/29 04:47:57;;;;;;;6.60;3.63;;;0.50;99.90;;;;;;4951052;28;20498;-72
2024/01/29 04:50:22;;;;;;;7.88;4.78;;;0.50;99.90;;;;;;4951303;28;20023;-72
2024/01/29 04:52:48;;;;;;;7.35;3.72;;;0.50;99.90;;;;;;4931293;28;20548;-72
2024/01/29 04:55:14;;;;;;;6.30;4.45;;;0.40;99.90;;;;;;4956772;28;20390;-71
2024/01/29 04:57:41;;;;;;;3.70;2.92;;;0.50;99.90;;;;;;4951617;28;20103;-71
2024/01/29 05:00:08;;;;;;;7.32;4.25;;;0.50;99.90;;;;;;4949699;28;20038;-71
2024/01/29 05:02:35;;;;;;;7.20;3.30;;;0.50;99.90;;;;;;4946797;28;20023;-72
2024/01/29 05:05:02;;;;;;;8.60;4.50;;;0.50;99.90;;;;;;4949646;28;20035;-72
2024/01/29 05:07:27;;;;;;;5.80;3.80;;;0.50;99.90;;;;;;4951327;28;20027;-71
2024/01/29 05:09:54;;;;;;;9.43;5.07;;;0.50;99.90;;;;;;4951042;28;20395;-71
2024/01/29 05:12:20;;;;;;;5.45;3.45;;;0.50;99.90;;;;;;4948115;28;20059;-72
2024/01/29 05:14:45;;;;;;;5.90;4.00;;;0.50;99.90;;;;;;4958309;28;20470;-72
2024/01/29 05:17:11;;;;;;;6.30;3.85;;;0.60;99.90;;;;;;4932449;28;20536;-71
2024/01/29 05:19:40;;;;;;;7.60;2.83;;;0.60;99.90;;;;;;4959460;28;20058;-72
2024/01/29 05:22:06;;;;;;;8.13;4.65;;;0.70;99.90;;;;;;4979817;28;20027;-73
2024/01/29 05:24:32;;;;;;;9.48;3.30;;;0.70;99.90;;;;;;4948340;28;20431;-71
2024/01/29 05:26:58;;;;;;;5.25;2.95;;;0.70;99.90;;;;;;4948657;28;20093;-73
2024/01/29 05:29:23;;;;;;;7.35;2.65;;;0.90;99.90;;;;;;4945072;28;20035;-73
2024/01/29 05:31:49;;;;;;;7.32;4.00;;;0.90;99.90;;;;;;4933566;28;20427;-73
2024/01/29 05:34:15;;;;;;;13.35;3.50;;;0.90;99.90;;;;;;4949716;28;20070;-73
2024/01/29 05:36:40;;;;;;;7.38;3.72;;;0.80;99.90;;;;;;4949332;28;20035;-72
2024/01/29 05:39:06;;;;;;;7.45;4.30;;;0.70;99.90;;;;;;4942048;28;20047;-72
2024/01/29 05:41:32;;;;;;;3.30;2.33;;;0.80;99.90;;;;;;4950087;28;20031;-72
2024/01/29 05:43:58;;;;;;;4.47;3.10;;;0.90;99.90;;;;;;4948340;28;20054;-72
2024/01/29 05:46:24;;;;;;;4.57;2.92;;;0.80;99.90;;;;;;4950899;28;20027;-72
2024/01/29 05:48:50;;;;;;;10.18;4.00;;;0.80;99.90;;;;;;4950030;28;20034;-72
2024/01/29 05:51:15;;;;;;;5.03;3.25;;;0.90;99.90;;;;;;4950649;28;20035;-72
2024/01/29 05:53:41;;;;;;;6.95;3.03;;;0.80;99.90;;;;;;4949638;28;20039;-72
2024/01/29 05:56:07;;;;;;;7.50;3.42;;;0.90;99.90;;;;;;4950521;28;20031;-72
2024/01/29 05:58:34;;;;;;;7.40;2.80;;;0.90;99.90;;;;;;4950963;28;20380;-72
2024/01/29 06:01:00;;;;;;;7.35;3.88;;;0.80;99.90;;;;;;4947498;28;20027;-72
2024/01/29 06:03:26;;;;;;;7.55;3.80;;;0.90;99.90;;;;;;4949850;28;20038;-71
2024/01/29 06:05:52;;;;;;;9.43;4.47;;;0.90;99.90;;;;;;4950222;28;20027;-71
2024/01/29 06:08:20;;;;;;;8.25;3.75;;;0.90;99.90;;;;;;4950368;28;20027;-72
2024/01/29 06:10:46;;;;;;;7.13;3.33;;;0.90;99.90;;;;;;4946090;28;20089;-71
2024/01/29 06:13:12;;;;;;;6.38;3.10;;;0.90;99.90;;;;;;4948991;28;20134;-71
2024/01/29 06:15:38;;;;;;;14.93;5.40;;;0.80;99.90;;;;;;4944774;28;20182;-70
2024/01/29 06:18:05;;;;;;;9.30;3.70;;;0.90;99.90;;;;;;4949811;28;20035;-71
2024/01/29 06:20:30;;;;;;;12.35;3.38;;;0.90;99.90;;;;;;4951583;28;20031;-71
2024/01/29 06:22:56;;;;;;;3.22;2.60;;;0.90;99.90;;;;;;4952396;28;20518;-71
2024/01/29 06:25:22;;;;;;;5.63;3.22;;;0.90;99.90;;;;;;4953134;28;20467;-71
2024/01/29 06:27:47;;;;;;;3.70;2.85;;;0.90;99.90;;;;;;4953332;28;20041;-71
2024/01/29 06:30:14;;;;;;;9.00;3.70;;;0.90;99.90;;;;;;4952936;28;20122;-71
2024/01/29 06:32:41;;;;;;;5.05;3.30;;;0.90;99.90;;;;;;4952393;28;20027;-70
2024/01/29 06:35:07;;;;;;;7.82;3.30;;;0.90;99.90;;;;;;4952813;28;20053;-69
2024/01/29 06:37:33;;;;;;;10.45;4.00;;;0.80;99.90;;;;;;4953730;28;20038;-69
2024/01/29 06:39:59;;;;;;;4.75;3.13;;;0.80;99.90;;;;;;4952209;28;20390;-69
2024/01/29 06:42:24;;;;;;;11.32;2.83;;;0.80;99.90;;;;;;4952605;28;20028;-69
2024/01/29 06:44:52;;;;;;;9.55;4.18;;;0.80;99.90;;;;;;4952802;28;20031;-69
2024/01/29 06:47:18;;;;;;;6.85;2.88;;;0.70;99.90;;;;;;4951463;28;20045;-69
2024/01/29 06:49:43;;;;;;;4.53;3.22;;;0.70;99.90;;;;;;4952912;28;20543;-69
2024/01/29 06:52:09;;;;;;;11.18;4.65;;;0.70;99.90;;;;;;4953139;28;20088;-69
2024/01/29 06:54:35;;;;;;;9.35;3.67;;;0.70;99.90;;;;;;4950394;28;20062;-69
2024/01/29 06:57:01;;;;;;;5.68;2.67;;;0.80;99.90;;;;;;4945917;28;20063;-69
2024/01/29 06:59:27;;;;;;;9.73;4.78;;;0.80;99.90;;;;;;4952575;28;20027;-69
2024/01/29 07:01:58;;;;;;;5.18;3.20;;;0.80;99.90;;;;;;4951754;28;20039;-69
2024/01/29 07:04:24;;;;;;;5.97;3.20;;;0.80;99.90;;;;;;4952237;28;20096;-70
2024/01/29 07:06:54;;;;;;;3.60;2.50;;;0.80;99.90;;;;;;4951599;28;20066;-70
2024/01/29 07:09:20;;;;;;;5.90;3.20;;;0.80;99.90;;;;;;4951838;28;20106;-68
2024/01/29 07:11:46;;;;;;;5.13;2.78;;;0.80;99.90;;;;;;4952523;28;20960;-68
2024/01/29 07:14:12;;;;;;;6.28;2.95;;;0.80;99.90;;;;;;4950304;28;20391;-69
2024/01/29 07:16:38;;;;;;;7.60;3.53;;;0.70;99.90;;;;;;4951748;29;20027;-56
2024/01/29 07:19:03;;;;;;;11.57;4.05;;;0.60;99.90;;;;;;4952408;28;20471;-53
2024/01/29 07:21:29;;;;;;;3.80;2.55;;;0.60;99.90;;;;;;4952334;28;20417;-55
2024/01/29 07:23:55;;;;;;;6.60;2.92;;;0.50;99.90;;;;;;4951930;28;20034;-55
2024/01/29 07:26:21;;;;;;;9.63;3.45;;;0.50;99.90;;;;;;4951886;28;20372;-54
2024/01/29 07:28:46;;;;;;;5.05;3.13;;;0.50;99.90;;;;;;4952657;28;20035;-69
2024/01/29 07:31:12;;;;;;;3.63;2.30;;;0.60;99.90;;;;;;4951177;28;20039;-68
2024/01/29 07:33:38;;;;;;;9.25;3.50;;;0.60;99.90;;;;;;4970487;28;20030;-69
2024/01/29 07:36:04;;;;;;;7.22;3.67;;;0.60;99.90;;;;;;4950821;28;20514;-69
2024/01/29 07:38:30;;;;;;;13.25;3.55;;;0.70;99.90;;;;;;4952056;28;20023;-69
2024/01/29 07:40:55;;;;;;;11.43;4.45;;;0.70;99.90;;;;;;4950565;28;20043;-69
2024/01/29 07:43:21;;;;;;;7.07;3.75;;;0.70;99.90;;;;;;4951596;28;20479;-69
2024/01/29 07:45:47;;;;;;;7.28;3.35;;;0.70;99.90;;;;;;4950640;28;20039;-69
2024/01/29 07:48:13;;;;;;;7.57;2.95;;;0.60;99.90;;;;;;4955261;28;20107;-69
2024/01/29 07:50:38;;;;;;;6.55;2.85;;;0.70;99.90;;;;;;4950280;28;20035;-69
2024/01/29 07:53:05;;;;;;;7.47;3.50;;;0.80;99.90;;;;;;4947009;28;20031;-75
2024/01/29 07:55:31;;;;;;;6.55;3.15;;;0.80;99.90;;;;;;4950356;28;20046;-70
2024/01/29 07:57:57;;;;;;;6.60;3.20;;;0.80;99.90;;;;;;4950427;29;20403;-69
2024/01/29 08:00:22;;;;;;;7.25;3.15;;;0.90;99.90;;;;;;4926693;28;20546;-69
2024/01/29 08:02:48;;;;;;;12.32;8.10;;;0.80;99.90;;;;;;4951700;28;20441;-69
2024/01/29 08:05:14;;;;;;;13.45;6.45;;;0.90;99.90;;;;;;4949783;28;20408;-70
2024/01/29 08:07:40;;;;;;;5.95;3.83;;;1.00;99.90;;;;;;4950649;28;20046;-70
2024/01/29 08:10:06;;;;;;;4.75;3.30;;;1.00;99.90;;;;;;4950242;28;20039;-70
2024/01/29 08:12:32;;;;;;;3.50;3.00;;;0.80;99.90;;;;;;4941614;28;20077;-73
2024/01/29 08:14:57;;;;;;;7.22;4.03;;;1.00;99.90;;;;;;4950520;28;20031;-69
2024/01/29 08:17:23;;;;;;;7.80;3.15;;;1.10;99.90;;;;;;4949441;28;20027;-70
2024/01/29 08:19:49;;;;;;;9.35;3.83;;;1.30;99.90;;;;;;4951241;28;20037;-69
2024/01/29 08:22:14;;;;;;;6.32;3.42;;;1.10;99.90;;;;;;4950055;28;20452;-70
2024/01/29 08:24:40;;;;;;;5.32;3.00;;;1.20;99.90;;;;;;4949596;28;20081;-74
2024/01/29 08:27:06;;;;;;;4.80;3.10;;;1.40;99.90;;;;;;4946755;28;20030;-70
2024/01/29 08:29:32;;;;;;;10.32;4.38;;;1.50;99.90;;;;;;4950613;28;20027;-69
2024/01/29 08:31:58;;;;;;;9.90;3.80;;;1.70;99.90;;;;;;4988643;28;20440;-69
2024/01/29 08:34:24;;;;;;;6.30;3.28;;;1.80;99.90;;;;;;4948915;28;20564;-71
2024/01/29 08:36:50;;;;;;;5.82;3.88;;;2.00;99.90;;;;;;4950199;28;20046;-69
2024/01/29 08:39:17;;;;;;;6.88;3.55;;;2.20;99.90;;;;;;4951051;28;20108;-69
2024/01/29 08:41:43;;;;;;;7.55;3.50;;;2.30;99.90;;;;;;4949701;28;20035;-69
2024/01/29 08:44:09;;;;;;;3.30;2.15;;;2.50;99.90;;;;;;4948314;28;20062;-69
2024/01/29 08:46:35;;;;;;;9.10;4.28;;;2.60;99.90;;;;;;4944741;28;20427;-69
2024/01/29 08:49:01;;;;;;;9.70;3.90;;;2.60;99.90;;;;;;4958319;28;20031;-69
2024/01/29 08:51:26;;;;;;;7.57;3.25;;;2.70;99.90;;;;;;4950215;28;20479;-69
2024/01/29 08:53:53;;;;;;;8.05;3.10;;;2.90;99.90;;;;;;4949396;28;20450;-70
2024/01/29 08:56:20;;;;;;;10.05;3.42;;;3.10;99.90;;;;;;4950477;28;20110;-70
2024/01/29 08:58:45;;;;;;;8.75;3.63;;;3.20;99.90;;;;;;4926450;29;20043;-69
2024/01/29 09:01:11;;;;;;;9.27;3.55;;;3.40;99.90;;;;;;4950091;28;20558;-70
2024/01/29 09:03:37;;;;;;;8.73;4.32;;;3.30;99.90;;;;;;4948759;28;20030;-70
2024/01/29 09:06:03;;;;;;;11.23;3.72;;;3.50;99.90;;;;;;4950209;28;20028;-70
2024/01/29 09:08:29;;;;;;;7.82;3.45;;;3.60;99.90;;;;;;4948943;28;20031;-70
2024/01/29 09:10:55;;;;;;;7.10;3.92;;;3.70;99.90;;;;;;4949514;28;20038;-70
2024/01/29 09:13:21;;;;;;;8.70;4.00;;;3.80;99.90;;;;;;4949081;28;20035;-70
2024/01/29 09:15:47;;;;;;;8.15;3.85;;;3.90;99.90;;;;;;4950570;28;20506;-70
2024/01/29 09:18:12;;;;;;;6.80;2.92;;;4.10;99.90;;;;;;4950495;29;20871;-70
2024/01/29 09:20:38;;;;;;;4.53;3.05;;;4.20;99.90;;;;;;4950282;28;20471;-70
2024/01/29 09:23:04;;;;;;;9.95;4.55;;;4.40;99.90;;;;;;4948302;28;20042;-70
2024/01/29 09:26:02;;;;;;;8.07;4.18;;;4.50;99.90;;;;;;4947044;28;20495;-71
2024/01/29 09:28:28;;;;;;;10.45;3.70;;;4.70;99.90;;;;;;4981461;28;20035;-70
2024/01/29 09:30:54;;;;;;;6.85;3.80;;;4.80;99.90;;;;;;4950580;28;20464;-70
2024/01/29 09:33:19;;;;;;;6.10;3.33;;;4.90;99.90;;;;;;4949718;28;20034;-70
2024/01/29 09:35:46;;;;;;;7.00;3.13;;;5.20;99.90;;;;;;4950301;28;20043;-70
2024/01/29 09:38:14;;;;;;;6.43;3.08;;;5.40;99.90;;;;;;4948728;29;20019;-70
2024/01/29 09:40:44;;;;;;;8.15;3.40;;;5.60;99.90;;;;;;4950078;28;20034;-70
2024/01/29 09:43:12;;;;;;;11.20;3.40;;;5.70;99.90;;;;;;4941490;28;20024;-70
2024/01/29 09:45:40;;;;;;;4.65;2.50;;;5.90;99.90;;;;;;4949686;28;20036;-70
2024/01/29 09:48:11;;;;;;;8.98;3.90;;;6.10;99.90;;;;;;4944750;28;20042;-70
2024/01/29 09:50:39;;;;;;;11.02;3.70;;;6.30;99.90;;;;;;4948332;28;20118;-70
2024/01/29 09:53:06;;;;;;;4.97;2.92;;;6.40;99.90;;;;;;4948256;28;20093;-70
2024/01/29 09:55:35;;;;;;;8.88;3.70;;;6.50;99.90;;;;;;4944332;28;20122;-70
2024/01/29 09:58:01;;;;;;;5.22;2.47;;;6.60;99.90;;;;;;4945843;28;20039;-70
2024/01/29 10:00:27;;;;;;;7.25;3.45;;;6.80;99.90;;;;;;4945711;28;20032;-70
2024/01/29 10:02:54;;;;;;;7.82;3.15;;;6.90;99.90;;;;;;4944043;28;20059;-70
2024/01/29 10:05:19;;;;;;;7.75;2.63;;;7.00;99.90;;;;;;4962362;28;20035;-70
2024/01/29 10:07:47;;;;;;;5.95;2.97;;;7.20;99.90;;;;;;4948876;28;20035;-70
2024/01/29 10:10:14;;;;;;;5.43;2.95;;;7.30;99.90;;;;;;4943750;28;20399;-70
2024/01/29 10:12:39;;;;;;;9.70;3.72;;;7.90;99.90;;;;;;4939120;28;20027;-70
2024/01/29 10:15:06;;;;;;;8.18;2.90;;;8.70;99.90;;;;;;4945563;28;21791;-70
2024/01/29 10:17:35;;;;;;;6.97;3.83;;;10.40;99.90;;;;;;4942647;28;20116;-70
2024/01/29 10:20:00;;;;;;;7.30;3.35;;;11.80;98.20;;;;;;4947412;28;20042;-70
2024/01/29 10:22:27;;;;;;;10.38;3.30;;;12.30;94.30;;;;;;4948675;28;20027;-70
2024/01/29 10:25:03;;;;;;;7.15;3.25;;;11.90;96.10;;;;;;4949569;28;20391;-70
2024/01/29 10:27:30;;;;;;;5.35;2.70;;;13.00;92.80;;;;;;4948595;28;20023;-70
2024/01/29 10:29:56;;;;;;;7.55;3.10;;;12.90;91.50;;;;;;4931096;28;20031;-70
2024/01/29 10:32:23;;;;;;;9.25;3.20;;;12.40;91.60;;;;;;4944550;28;20509;-70
2024/01/29 10:34:49;;;;;;;7.25;3.17;;;12.30;94.90;;;;;;4959796;28;20384;-70
2024/01/29 10:37:20;;;;;;;7.03;2.92;;;13.40;91.70;;;;;;4948406;28;20027;-71
2024/01/29 10:39:47;;;;;;;9.68;3.50;;;13.10;90.50;;;;;;4945801;28;20032;-70
2024/01/29 10:42:14;;;;;;;7.68;2.85;;;13.00;88.10;;;;;;4946532;28;20778;-71
2024/01/29 10:44:41;;;;;;;7.82;3.22;;;13.60;88.20;;;;;;4927224;28;20019;-70
2024/01/29 10:47:25;;;;;;;10.52;3.65;;;11.60;92.20;;;;;;4946878;28;20040;-70
2024/01/29 10:49:54;;;;;;;6.72;3.35;;;12.30;93.10;;;;;;4928915;28;20043;-71
2024/01/29 10:52:21;;;;;;;8.77;2.95;;;13.40;91.50;;;;;;4946162;29;20031;-70
2024/01/29 10:54:47;;;;;;;7.50;3.78;;;14.10;88.10;;;;;;4947958;28;20031;-71
2024/01/29 10:57:15;;;;;;;6.93;3.55;;;13.40;85.60;;;;;;4946834;28;20031;-71
2024/01/29 10:59:42;;;;;;;7.03;3.28;;;14.20;84.90;;;;;;4974414;28;20049;-70
2024/01/29 11:02:16;;;;;;;5.90;3.33;;;14.30;85.50;;;;;;5043123;28;20478;-70
2024/01/29 11:04:43;;;;;;;5.10;3.50;;;15.20;80.30;;;;;;5022636;28;20885;-71
2024/01/29 11:07:26;;;;;;;7.93;3.75;;;15.20;79.00;;;;;;5031754;28;20033;-71
2024/01/29 11:10:23;;;;;;;7.97;3.88;;;14.70;80.50;;;;;;5030260;28;20029;-70
2024/01/29 11:12:53;;;;;;;6.18;3.08;;;15.90;77.50;;;;;;5023357;28;20524;-70
2024/01/29 11:15:19;;;;;;;8.38;3.75;;;13.80;80.00;;;;;;5027608;28;20046;-71
2024/01/29 11:17:45;;;;;;;7.43;3.15;;;14.90;81.40;;;;;;5030918;28;20037;-71
2024/01/29 11:20:17;;;;;;;5.78;2.55;;;15.70;77.90;;;;;;5014074;28;20056;-71
2024/01/29 11:22:52;;;;;;;9.52;2.85;;;16.30;75.20;;;;;;5027192;28;20033;-71
2024/01/29 11:25:19;;;;;;;6.35;2.47;;;16.20;74.80;;;;;;5031317;28;20059;-70
2024/01/29 11:27:49;;;;;;;7.90;2.97;;;13.50;80.90;;;;;;5031298;28;20026;-70
2024/01/29 11:30:25;;;;;;;7.03;2.95;;;13.60;87.30;;;;;;5031151;28;20033;-70
2024/01/29 11:32:53;;;;;;;8.48;4.45;;;14.80;84.30;;;;;;5027017;28;20087;-70
2024/01/29 11:35:20;;;;;;;7.25;3.90;;;13.50;84.00;;;;;;5031677;28;20116;-68
2024/01/29 11:37:50;;;;;;;5.88;3.40;;;14.20;79.90;;;;;;5028843;28;20386;-72
2024/01/29 11:40:34;;;;;;;9.18;3.55;;;13.80;80.40;;;;;;5030234;28;20029;-70
2024/01/29 11:43:09;;;;;;;8.15;3.45;;;12.30;87.90;;;;;;5031039;28;20044;-70
2024/01/29 11:45:36;;;;;;;8.77;3.42;;;12.80;90.50;;;;;;5032112;28;20036;-69
2024/01/29 11:48:07;;;;;;;9.75;3.67;;;14.00;85.70;;;;;;5031794;28;20112;-71
2024/01/29 11:50:34;;;;;;;5.70;3.10;;;13.40;86.30;;;;;;5030012;28;20429;-69
2024/01/29 11:52:59;;;;;;;9.68;3.10;;;15.20;79.60;;;;;;5029585;28;20033;-69
2024/01/29 11:55:25;;;;;;;5.90;3.33;;;15.60;82.10;;;;;;5028539;28;20044;-69
2024/01/29 11:57:54;;;;;;;5.57;2.85;;;15.20;79.90;;;;;;5027813;28;20037;-69
2024/01/29 12:00:19;;;;;;;8.43;4.20;;;16.60;77.60;;;;;;5027699;28;20029;-70
2024/01/29 12:02:50;;;;;;;6.90;3.75;;;14.30;79.40;;;;;;5026693;28;20029;-69
2024/01/29 12:05:17;;;;;;;9.75;3.92;;;13.40;85.60;;;;;;5029297;28;20428;-69
2024/01/29 12:07:48;;;;;;;8.38;3.40;;;16.40;77.20;;;;;;5027142;28;20045;-70
2024/01/29 12:10:16;;;;;;;5.50;3.20;;;14.70;79.10;;;;;;5029729;28;20591;-70
2024/01/29 12:12:42;;;;;;;5.93;3.00;;;16.40;75.70;;;;;;5005026;28;20053;-70
2024/01/29 12:15:11;;;;;;;6.50;2.92;;;16.10;74.50;;;;;;5030510;28;20034;-70
2024/01/29 12:17:40;;;;;;;5.78;2.70;;;17.50;73.60;;;;;;5008729;28;20048;-70
2024/01/29 12:20:10;;;;;;;6.30;2.72;;;17.10;72.80;;;;;;5028856;28;20458;-70
2024/01/29 12:22:37;;;;;;;4.22;2.17;;;16.20;75.00;;;;;;5025261;28;20032;-71
2024/01/29 12:25:03;;;;;;;5.05;2.25;;;18.40;70.00;;;;;;5011994;28;20021;-71
2024/01/29 12:27:29;;;;;;;4.88;2.10;;;19.70;66.90;;;;;;5026306;28;20113;-69
2024/01/29 12:29:57;;;;;;;5.07;2.47;;;16.50;72.70;;;;;;5029696;28;20549;-69
2024/01/29 12:32:23;;;;;;;4.20;2.35;;;17.80;68.70;;;;;;5030462;28;20503;-70
2024/01/29 12:34:52;;;;;;;5.40;2.35;;;15.30;70.20;;;;;;5031343;28;20037;-70
2024/01/29 12:37:21;;;;;;;8.07;2.95;;;15.50;74.10;;;;;;5030597;28;20621;-70
2024/01/29 12:39:55;;;;;;;4.57;2.25;;;15.90;72.80;;;;;;5023455;28;20394;-69
2024/01/29 12:42:22;;;;;;;4.55;2.45;;;16.80;71.40;;;;;;5022898;28;20470;-70
2024/01/29 12:44:50;;;;;;;8.75;3.17;;;14.90;75.40;;;;;;5031109;28;20033;-70
2024/01/29 12:47:21;;;;;;;5.72;2.92;;;15.50;73.70;;;;;;5029592;28;20026;-70